Terminal Aerodrome Forecast
Issued by NWS Twin Cities, MN

Home | Current Version | Previous Version | Text Only | Print | Product List | Glossary Off
Versions: 1 2 3 4 5 6 7 8 9 10 11 12 13 14 15 16 17 18 19 20 21 22 23 24 25 26 27 28

462
FTUS43 KMPX 050538
TAFMSP
TAF
KMSP 050538Z 0506/0612 VRB03KT P6SM SCT250
     FM051400 16006KT P6SM OVC090
     FM051800 17009KT P6SM OVC040
     FM052100 18008KT 3SM -SN BR OVC025
     FM060200 20005KT P6SM BKN020=

USA.gov is the U.S. government's official web portal to all federal, state and local government web resources and services.